Time;durP1;ratioP1;P1;durP2;ratioP2;P2;SDS_P1;SDS_P2;PMS_P1;PMS_P2;Temp;Humidity;BMP_temperature;BMP_pressure;BME280_temperature;BME280_humidity;BME280_pressure;Samples;Min_cycle;Max_cycle;Signal;HPM_P1;HPM_P2
2021/09/06 00:03:07;;;;;;;8.87;7.97;;;17.90;99.90;;;;;;10455622;28;20655;-80
2021/09/06 00:08:09;;;;;;;8.00;7.30;;;17.80;99.90;;;;;;10459908;28;20232;-81
2021/09/06 00:13:14;;;;;;;9.50;8.40;;;17.80;99.90;;;;;;10465967;28;20196;-81
2021/09/06 00:18:17;;;;;;;8.90;8.20;;;17.70;99.90;;;;;;10552394;23;20224;-81
2021/09/06 00:23:20;;;;;;;8.60;7.97;;;17.70;99.90;;;;;;10523123;28;20651;-81
2021/09/06 00:28:22;;;;;;;9.40;8.70;;;17.70;99.90;;;;;;10422965;28;20234;-82
2021/09/06 00:33:26;;;;;;;8.20;7.50;;;17.70;99.90;;;;;;10469205;28;20298;-82
2021/09/06 00:38:28;;;;;;;8.73;8.07;;;17.70;99.90;;;;;;10551717;28;20238;-82
2021/09/06 00:43:30;;;;;;;9.00;8.20;;;17.60;99.90;;;;;;10574927;28;20192;-82
2021/09/06 00:48:34;;;;;;;9.20;8.40;;;17.50;99.90;;;;;;10537174;28;20226;-82
2021/09/06 00:53:36;;;;;;;8.37;7.77;;;17.50;99.90;;;;;;10377948;28;20198;-82
2021/09/06 00:58:39;;;;;;;8.47;7.87;;;17.50;99.90;;;;;;10444238;28;20219;-81
2021/09/06 01:03:42;;;;;;;8.97;8.27;;;17.40;99.90;;;;;;10372911;28;20201;-82
2021/09/06 01:09:02;;;;;;;10.00;9.07;;;17.40;99.90;;;;;;10442870;28;20230;-82
2021/09/06 01:14:19;;;;;;;9.20;8.30;;;17.40;99.90;;;;;;10441128;28;20218;-82
2021/09/06 01:19:23;;;;;;;8.70;7.90;;;17.30;99.90;;;;;;10357751;28;20261;-82
2021/09/06 01:24:30;;;;;;;8.30;7.70;;;17.30;99.90;;;;;;10402332;28;20223;-82
2021/09/06 01:29:37;;;;;;;8.87;8.27;;;17.30;99.90;;;;;;10380757;28;20227;-82
2021/09/06 01:34:40;;;;;;;8.37;7.77;;;17.20;99.90;;;;;;10387908;28;20227;-81
2021/09/06 01:39:42;;;;;;;8.80;8.10;;;17.20;99.90;;;;;;10405358;28;20196;-82
2021/09/06 01:44:46;;;;;;;9.10;8.40;;;17.20;99.90;;;;;;10390189;28;20227;-82
2021/09/06 01:49:53;;;;;;;8.70;7.90;;;17.10;99.90;;;;;;10410690;28;20231;-82
2021/09/06 01:54:56;;;;;;;9.57;8.67;;;17.10;99.90;;;;;;10446154;28;20252;-81
2021/09/06 02:00:00;;;;;;;9.00;8.40;;;17.00;99.90;;;;;;10378633;28;20930;-82
2021/09/06 02:05:06;;;;;;;9.20;8.40;;;17.00;99.90;;;;;;10446422;28;20219;-82
2021/09/06 02:10:10;;;;;;;9.63;8.77;;;17.00;99.90;;;;;;10431727;28;20222;-82
2021/09/06 02:15:14;;;;;;;9.23;8.50;;;16.90;99.90;;;;;;10447667;28;20237;-82
2021/09/06 02:20:18;;;;;;;9.43;8.63;;;16.90;99.90;;;;;;10443079;28;20217;-82
2021/09/06 02:25:20;;;;;;;8.93;8.23;;;16.90;99.90;;;;;;10377503;28;20230;-81
2021/09/06 02:30:27;;;;;;;9.00;8.30;;;16.90;99.90;;;;;;10361729;28;20233;-82
2021/09/06 02:35:29;;;;;;;9.57;8.57;;;16.90;99.90;;;;;;10360547;28;20596;-82
2021/09/06 02:40:31;;;;;;;9.17;8.47;;;16.80;99.90;;;;;;10378865;28;20199;-82
2021/09/06 02:45:35;;;;;;;9.50;8.70;;;16.70;99.90;;;;;;10377555;28;20218;-82
2021/09/06 02:50:42;;;;;;;11.07;9.93;;;16.70;99.90;;;;;;10371417;28;20590;-82
2021/09/06 02:55:45;;;;;;;9.10;8.30;;;16.70;99.90;;;;;;10388869;28;20219;-82
2021/09/06 03:00:48;;;;;;;10.17;9.33;;;16.70;99.90;;;;;;10388800;28;20714;-82
2021/09/06 03:05:51;;;;;;;9.70;8.90;;;16.70;99.90;;;;;;10413316;28;20215;-82
2021/09/06 03:10:54;;;;;;;9.70;8.50;;;16.70;99.90;;;;;;10395794;28;20223;-82
2021/09/06 03:15:59;;;;;;;10.47;9.67;;;16.70;99.90;;;;;;10412818;28;20230;-82
2021/09/06 03:21:02;;;;;;;10.17;9.37;;;16.60;99.90;;;;;;10444822;28;20210;-82
2021/09/06 03:26:05;;;;;;;10.70;9.87;;;16.50;99.90;;;;;;10437857;28;20219;-81
2021/09/06 03:31:11;;;;;;;9.13;8.43;;;16.50;99.90;;;;;;10453266;28;20598;-82
2021/09/06 03:36:14;;;;;;;10.70;9.70;;;16.50;99.90;;;;;;10437540;28;20649;-82
2021/09/06 03:41:17;;;;;;;10.23;9.43;;;16.40;99.90;;;;;;10437212;28;20278;-82
2021/09/06 03:46:21;;;;;;;8.90;8.30;;;16.40;99.90;;;;;;10456615;28;20219;-82
2021/09/06 03:51:25;;;;;;;9.60;8.83;;;16.40;99.90;;;;;;10385664;28;20628;-81
2021/09/06 03:56:29;;;;;;;9.80;9.00;;;16.40;99.90;;;;;;10366037;28;20234;-81
2021/09/06 04:01:33;;;;;;;8.30;7.70;;;16.30;99.90;;;;;;10596557;28;20221;-82
2021/09/06 04:06:36;;;;;;;9.50;8.70;;;16.30;99.90;;;;;;10567098;28;20219;-82
2021/09/06 04:11:44;;;;;;;9.63;8.83;;;16.30;99.90;;;;;;10566475;28;20260;-82
2021/09/06 04:16:47;;;;;;;10.37;8.40;;;16.20;99.90;;;;;;10574569;28;20637;-82
2021/09/06 04:21:51;;;;;;;10.83;8.70;;;16.20;99.90;;;;;;10456504;28;20217;-82
2021/09/06 04:26:54;;;;;;;9.97;9.07;;;16.20;99.90;;;;;;10428558;28;20272;-81
2021/09/06 04:31:57;;;;;;;9.90;9.07;;;16.10;99.90;;;;;;10431025;28;20214;-82
2021/09/06 04:37:02;;;;;;;10.73;9.90;;;16.10;99.90;;;;;;10450138;28;20499;-82
2021/09/06 04:42:06;;;;;;;10.33;9.43;;;16.10;99.90;;;;;;10446585;28;20207;-81
2021/09/06 04:47:10;;;;;;;10.70;9.70;;;16.10;99.90;;;;;;10429574;28;20227;-82
2021/09/06 04:52:13;;;;;;;11.70;10.70;;;16.10;99.90;;;;;;10445341;28;20203;-82
2021/09/06 04:57:16;;;;;;;11.60;10.70;;;16.00;99.90;;;;;;10508838;28;20601;-82
2021/09/06 05:02:23;;;;;;;10.67;9.77;;;16.00;99.90;;;;;;10481544;28;20242;-82
2021/09/06 05:07:25;;;;;;;9.90;9.00;;;16.00;99.90;;;;;;10389492;28;20225;-82
2021/09/06 05:12:29;;;;;;;10.10;9.30;;;16.00;99.90;;;;;;10472454;28;20210;-81
2021/09/06 05:17:44;;;;;;;9.70;8.70;;;16.00;99.90;;;;;;10500684;28;20220;-82
2021/09/06 05:22:51;;;;;;;9.97;9.07;;;16.00;99.90;;;;;;10406338;28;20204;-83
2021/09/06 05:27:53;;;;;;;10.67;9.77;;;16.00;99.90;;;;;;10489593;28;20690;-83
2021/09/06 05:32:57;;;;;;;10.83;9.97;;;15.90;99.90;;;;;;10415461;28;20218;-82
2021/09/06 05:37:59;;;;;;;10.90;9.73;;;15.90;99.90;;;;;;10379946;28;20227;-82
2021/09/06 05:43:24;;;;;;;11.27;10.00;;;16.00;99.90;;;;;;10399524;28;20598;-83
2021/09/06 05:48:28;;;;;;;11.27;10.27;;;16.00;99.90;;;;;;10380768;28;20645;-82
2021/09/06 05:53:30;;;;;;;13.50;12.20;;;16.10;99.90;;;;;;10400024;28;20593;-83
2021/09/06 05:58:33;;;;;;;11.83;10.63;;;16.10;99.90;;;;;;10382353;28;20696;-83
2021/09/06 06:03:37;;;;;;;11.70;10.70;;;16.20;99.90;;;;;;10378817;28;20298;-83
2021/09/06 06:08:42;;;;;;;12.10;10.90;;;16.20;99.90;;;;;;10382594;28;20235;-83
2021/09/06 06:13:44;;;;;;;11.67;10.53;;;16.20;99.90;;;;;;10400671;28;20222;-82
2021/09/06 06:18:48;;;;;;;14.67;13.27;;;16.20;99.90;;;;;;10354326;23;20238;-85
2021/09/06 06:23:54;;;;;;;12.60;11.43;;;16.30;99.90;;;;;;10328941;28;20206;-82
2021/09/06 06:29:09;;;;;;;15.00;13.70;;;16.30;99.90;;;;;;10328769;28;20226;-82
2021/09/06 06:34:13;;;;;;;13.63;12.27;;;16.40;99.90;;;;;;10312534;28;20207;-82
2021/09/06 06:39:17;;;;;;;13.20;12.03;;;16.50;99.90;;;;;;10335643;28;20312;-82
2021/09/06 06:44:22;;;;;;;13.20;11.90;;;16.60;99.90;;;;;;10337019;28;20207;-82
2021/09/06 06:49:26;;;;;;;13.63;12.33;;;16.60;99.90;;;;;;10335285;28;20254;-82
2021/09/06 06:54:29;;;;;;;12.47;11.37;;;16.70;99.90;;;;;;10335575;28;20211;-82
2021/09/06 06:59:32;;;;;;;14.60;13.30;;;16.80;99.90;;;;;;10335121;28;20203;-82
2021/09/06 07:04:36;;;;;;;13.40;12.20;;;16.90;99.90;;;;;;10317522;28;20213;-82
2021/09/06 07:09:41;;;;;;;16.13;13.70;;;17.00;99.90;;;;;;10334227;28;20256;-82
2021/09/06 07:14:44;;;;;;;12.83;11.80;;;17.10;99.90;;;;;;10317604;28;20245;-81
2021/09/06 07:19:47;;;;;;;13.77;12.40;;;17.20;99.90;;;;;;10310607;28;20657;-82
2021/09/06 07:24:50;;;;;;;13.33;12.07;;;17.30;99.90;;;;;;10293195;28;20303;-82
2021/09/06 07:29:52;;;;;;;14.83;13.53;;;17.30;99.90;;;;;;10360748;28;20236;-82
2021/09/06 07:34:56;;;;;;;16.47;13.47;;;17.40;99.90;;;;;;10357864;28;20224;-82
2021/09/06 07:39:59;;;;;;;13.83;12.63;;;17.60;99.90;;;;;;10289800;28;20219;-82
2021/09/06 07:45:01;;;;;;;13.40;12.20;;;17.70;99.90;;;;;;10289664;28;20639;-82
2021/09/06 07:50:07;;;;;;;14.40;12.83;;;17.80;99.90;;;;;;10382524;28;20578;-81
2021/09/06 07:55:11;;;;;;;12.80;11.40;;;17.90;99.90;;;;;;10329842;28;20215;-82
2021/09/06 08:00:15;;;;;;;14.10;12.63;;;18.00;99.90;;;;;;10329413;28;20215;-82
2021/09/06 08:05:22;;;;;;;14.60;13.10;;;18.20;99.90;;;;;;10346500;28;20589;-82
2021/09/06 08:10:24;;;;;;;12.60;11.50;;;18.30;99.90;;;;;;10313686;28;20562;-82
2021/09/06 08:15:28;;;;;;;12.37;11.37;;;18.50;99.90;;;;;;10312130;28;20793;-82
2021/09/06 08:20:34;;;;;;;11.07;10.07;;;18.60;99.90;;;;;;10471151;28;20285;-82
2021/09/06 08:25:37;;;;;;;11.77;10.67;;;18.70;99.90;;;;;;10525009;28;20311;-82
2021/09/06 08:30:42;;;;;;;10.97;10.03;;;18.80;99.90;;;;;;10543962;28;20192;-82
2021/09/06 08:35:47;;;;;;;11.73;10.47;;;18.90;99.90;;;;;;10524859;28;20327;-82
2021/09/06 08:40:51;;;;;;;12.07;10.97;;;19.00;99.90;;;;;;10542710;28;20223;-82
2021/09/06 08:45:53;;;;;;;11.97;10.87;;;19.10;99.90;;;;;;10524668;28;20721;-82
2021/09/06 08:50:59;;;;;;;11.00;9.57;;;19.20;99.90;;;;;;10340689;28;20208;-82
2021/09/06 08:56:02;;;;;;;11.80;10.70;;;19.30;99.90;;;;;;10290276;28;20220;-83
2021/09/06 09:01:07;;;;;;;11.03;10.13;;;19.40;99.90;;;;;;10290698;28;20245;-82
2021/09/06 09:06:37;;;;;;;9.97;8.97;;;19.40;99.90;;;;;;10301577;28;20235;-82
2021/09/06 09:12:10;;;;;;;11.90;9.50;;;19.50;99.90;;;;;;10300234;28;20214;-83
2021/09/06 09:17:27;;;;;;;11.03;10.03;;;19.60;99.90;;;;;;10294953;28;20304;-82
2021/09/06 09:22:54;;;;;;;10.10;8.80;;;19.80;99.90;;;;;;10536267;28;20200;-82
2021/09/06 09:28:15;;;;;;;11.50;9.50;;;19.90;99.90;;;;;;10552291;28;20264;-82
2021/09/06 09:33:37;;;;;;;10.33;9.43;;;20.00;99.90;;;;;;10535877;28;20617;-82
2021/09/06 09:39:11;;;;;;;8.80;8.10;;;20.10;99.90;;;;;;10534700;28;20227;-82
2021/09/06 09:44:20;;;;;;;8.27;7.57;;;20.40;99.90;;;;;;10550392;28;20196;-82
2021/09/06 09:49:37;;;;;;;7.90;7.40;;;20.60;99.90;;;;;;10535650;28;20256;-85
2021/09/06 09:54:42;;;;;;;8.73;8.13;;;20.90;99.90;;;;;;10552370;28;20228;-82
2021/09/06 09:59:46;;;;;;;9.07;8.37;;;21.30;99.90;;;;;;10553525;28;20219;-83
2021/09/06 10:04:52;;;;;;;8.00;7.40;;;21.80;99.90;;;;;;10553198;28;20211;-83
2021/09/06 10:09:57;;;;;;;8.80;8.10;;;22.10;99.90;;;;;;10535256;28;20192;-82
2021/09/06 10:15:05;;;;;;;8.10;7.47;;;22.10;99.90;;;;;;10559607;28;20223;-83
2021/09/06 10:20:27;;;;;;;9.07;8.27;;;21.90;99.90;;;;;;10431120;28;20231;-82
2021/09/06 10:25:35;;;;;;;10.37;9.47;;;21.80;99.90;;;;;;10329733;28;20218;-82
2021/09/06 10:30:40;;;;;;;8.20;7.50;;;21.70;99.90;;;;;;10327321;28;20212;-82
2021/09/06 10:35:42;;;;;;;9.37;8.67;;;21.70;99.90;;;;;;10327463;28;20584;-82
2021/09/06 10:40:47;;;;;;;9.07;8.27;;;21.60;99.90;;;;;;10334196;28;20624;-82
2021/09/06 10:45:53;;;;;;;9.77;8.97;;;21.60;99.90;;;;;;10330356;28;20297;-82
2021/09/06 10:50:58;;;;;;;11.60;10.70;;;21.70;99.90;;;;;;10310332;28;20569;-82
2021/09/06 10:56:01;;;;;;;8.80;8.20;;;21.80;99.90;;;;;;10288504;28;20226;-82
2021/09/06 11:01:08;;;;;;;10.50;9.60;;;21.90;99.80;;;;;;10286510;28;20540;-82
2021/09/06 11:06:10;;;;;;;8.93;8.13;;;22.00;99.70;;;;;;10285078;28;20220;-82
2021/09/06 11:11:13;;;;;;;9.07;8.33;;;22.00;99.90;;;;;;10286959;28;20280;-82
2021/09/06 11:16:18;;;;;;;9.20;8.50;;;22.00;98.20;;;;;;10284819;28;20450;-82
2021/09/06 11:21:21;;;;;;;9.93;9.03;;;22.20;97.80;;;;;;10302785;28;20235;-82
2021/09/06 11:26:29;;;;;;;8.67;7.97;;;22.20;98.10;;;;;;10333540;28;20219;-82
2021/09/06 11:31:32;;;;;;;8.80;7.93;;;22.30;99.10;;;;;;10334711;28;20192;-83
2021/09/06 11:36:34;;;;;;;9.30;8.60;;;22.30;97.90;;;;;;10332239;28;20589;-82
2021/09/06 11:41:38;;;;;;;8.47;7.83;;;22.30;99.30;;;;;;10330982;28;20230;-82
2021/09/06 11:46:43;;;;;;;8.87;8.17;;;22.20;99.90;;;;;;10336551;28;20221;-82
2021/09/06 11:51:45;;;;;;;8.67;7.97;;;22.20;96.10;;;;;;10312064;28;20262;-82
2021/09/06 11:56:59;;;;;;;9.83;8.90;;;22.10;97.50;;;;;;10295405;28;20574;-82
2021/09/06 12:02:10;;;;;;;7.83;7.23;;;22.20;97.30;;;;;;10295071;28;20222;-83
2021/09/06 12:07:16;;;;;;;9.17;8.47;;;22.30;95.70;;;;;;10297677;28;20220;-82
2021/09/06 12:12:22;;;;;;;9.10;8.40;;;22.30;96.90;;;;;;10297642;28;20196;-83
2021/09/06 12:17:34;;;;;;;9.10;8.30;;;22.30;98.70;;;;;;10297728;28;20668;-82
2021/09/06 12:22:36;;;;;;;8.77;8.17;;;22.30;98.00;;;;;;10337250;28;20264;-84
2021/09/06 12:27:40;;;;;;;8.70;8.10;;;22.30;97.30;;;;;;10338274;28;20233;-82
2021/09/06 12:32:42;;;;;;;8.20;7.60;;;22.40;97.70;;;;;;10338657;28;20702;-82
2021/09/06 12:37:44;;;;;;;8.93;8.23;;;22.50;95.20;;;;;;10339480;28;20243;-82
2021/09/06 12:42:50;;;;;;;7.73;7.13;;;22.50;95.90;;;;;;10356399;28;20230;-82
2021/09/06 12:47:52;;;;;;;7.60;6.97;;;22.60;95.20;;;;;;10368186;28;20223;-82
2021/09/06 12:52:54;;;;;;;10.73;7.70;;;22.60;96.40;;;;;;10554932;28;20255;-82
2021/09/06 12:57:59;;;;;;;8.30;7.50;;;22.60;96.40;;;;;;10553001;28;20216;-82
2021/09/06 13:03:02;;;;;;;8.17;7.47;;;22.50;99.00;;;;;;10536809;28;20659;-82
2021/09/06 13:08:05;;;;;;;7.87;7.20;;;22.50;92.10;;;;;;10541069;28;20311;-82
2021/09/06 13:13:09;;;;;;;7.50;6.77;;;22.50;94.90;;;;;;10555692;28;20633;-82
2021/09/06 13:18:13;;;;;;;6.93;6.43;;;22.50;95.80;;;;;;10557271;28;20232;-82
2021/09/06 13:23:15;;;;;;;7.20;6.70;;;22.60;92.80;;;;;;10544410;28;20210;-82
2021/09/06 13:28:18;;;;;;;7.17;6.60;;;22.60;93.80;;;;;;10546104;28;20208;-82
2021/09/06 13:33:20;;;;;;;8.80;7.90;;;22.60;95.40;;;;;;10541609;28;20200;-82
2021/09/06 13:38:24;;;;;;;7.40;6.70;;;22.60;93.30;;;;;;10539636;28;20294;-82
2021/09/06 13:43:27;;;;;;;7.77;7.07;;;22.60;95.10;;;;;;10539725;28;20222;-82
2021/09/06 13:48:29;;;;;;;6.43;5.93;;;22.60;93.90;;;;;;10483968;28;20227;-82
2021/09/06 13:53:31;;;;;;;7.53;6.93;;;22.70;93.20;;;;;;10326250;28;20211;-83
2021/09/06 13:58:35;;;;;;;7.87;7.07;;;22.70;95.60;;;;;;10312264;28;20272;-82
2021/09/06 14:03:37;;;;;;;9.00;7.00;;;22.60;94.90;;;;;;10394908;28;20518;-82
2021/09/06 14:08:39;;;;;;;7.30;6.70;;;22.60;93.30;;;;;;10328255;28;20226;-82
2021/09/06 14:13:43;;;;;;;7.77;7.10;;;22.60;96.10;;;;;;10326766;28;20569;-82
2021/09/06 14:18:45;;;;;;;7.07;6.57;;;22.50;98.60;;;;;;10331697;28;20773;-83
2021/09/06 14:23:47;;;;;;;7.10;6.57;;;22.40;97.90;;;;;;10290238;28;20204;-82
2021/09/06 14:28:51;;;;;;;7.30;6.70;;;22.40;95.60;;;;;;10288192;28;20593;-82
2021/09/06 14:33:53;;;;;;;7.47;6.87;;;22.50;93.70;;;;;;10286120;28;20628;-82
2021/09/06 14:38:55;;;;;;;8.30;7.50;;;22.60;96.40;;;;;;10270898;28;20328;-81
2021/09/06 14:43:58;;;;;;;7.80;7.20;;;22.60;97.30;;;;;;10287489;28;20204;-82
2021/09/06 14:49:00;;;;;;;10.30;7.43;;;22.60;97.50;;;;;;10378104;28;20238;-82
2021/09/06 14:54:03;;;;;;;7.63;6.90;;;22.50;96.40;;;;;;10521570;28;20195;-82
2021/09/06 14:59:06;;;;;;;7.80;7.13;;;22.80;97.40;;;;;;10543858;28;20219;-82
2021/09/06 15:04:08;;;;;;;7.63;7.03;;;22.80;99.50;;;;;;10546543;28;20196;-82
2021/09/06 15:09:10;;;;;;;7.80;6.63;;;22.60;99.90;;;;;;10550312;28;20208;-82
2021/09/06 15:14:14;;;;;;;8.17;7.47;;;22.40;98.40;;;;;;10441921;28;20257;-82
2021/09/06 15:19:16;;;;;;;6.80;6.30;;;22.30;97.40;;;;;;10483441;28;20223;-82
2021/09/06 15:24:18;;;;;;;7.70;7.00;;;22.30;99.90;;;;;;10546867;28;20207;-81
2021/09/06 15:29:22;;;;;;;8.73;6.97;;;22.20;97.60;;;;;;10546958;28;20204;-81
2021/09/06 15:34:24;;;;;;;7.90;7.20;;;22.20;99.90;;;;;;10528528;28;20223;-82
2021/09/06 15:39:27;;;;;;;8.07;7.47;;;22.10;99.90;;;;;;10553112;28;20212;-82
2021/09/06 15:44:31;;;;;;;9.13;8.40;;;22.10;99.90;;;;;;10551598;28;20256;-82
2021/09/06 15:49:33;;;;;;;6.97;6.43;;;22.10;98.10;;;;;;10452337;28;20195;-82
2021/09/06 15:54:35;;;;;;;8.60;7.63;;;22.20;98.40;;;;;;10319162;28;20203;-82
2021/09/06 15:59:38;;;;;;;8.77;8.00;;;22.30;99.90;;;;;;10334494;28;20237;-82
2021/09/06 16:04:40;;;;;;;7.43;6.83;;;22.30;99.90;;;;;;10312477;28;20695;-82
2021/09/06 16:09:44;;;;;;;8.40;7.63;;;22.20;99.90;;;;;;10331655;28;20253;-82
2021/09/06 16:14:47;;;;;;;7.70;7.00;;;22.10;99.90;;;;;;10314041;28;20227;-82
2021/09/06 16:19:49;;;;;;;7.40;6.80;;;22.10;96.20;;;;;;10307866;28;20216;-82
2021/09/06 16:24:52;;;;;;;8.23;7.60;;;22.20;95.90;;;;;;10272739;28;20224;-82
2021/09/06 16:29:55;;;;;;;7.20;6.60;;;22.40;96.50;;;;;;10289200;28;20254;-81
2021/09/06 16:34:57;;;;;;;8.70;7.67;;;22.50;97.40;;;;;;10288409;28;20294;-81
2021/09/06 16:39:59;;;;;;;8.33;7.67;;;22.60;97.60;;;;;;10273535;28;20291;-82
2021/09/06 16:45:03;;;;;;;9.10;8.33;;;22.70;97.10;;;;;;10290848;28;20706;-82
2021/09/06 16:50:06;;;;;;;8.33;7.33;;;22.70;97.30;;;;;;10312032;28;20594;-82
2021/09/06 16:55:09;;;;;;;7.73;7.13;;;22.60;97.50;;;;;;10329723;28;20235;-82
2021/09/06 17:00:13;;;;;;;8.53;7.93;;;22.50;97.40;;;;;;10313125;28;20227;-82
2021/09/06 17:05:16;;;;;;;8.13;7.43;;;22.40;97.70;;;;;;10330032;28;20220;-82
2021/09/06 17:10:19;;;;;;;8.00;7.40;;;22.30;98.00;;;;;;10312116;28;20559;-82
2021/09/06 17:15:23;;;;;;;8.10;7.40;;;22.10;98.10;;;;;;10330693;28;20227;-81
2021/09/06 17:20:25;;;;;;;7.80;7.10;;;21.90;98.90;;;;;;10467038;28;20222;-82
2021/09/06 17:25:27;;;;;;;7.90;7.20;;;21.80;98.40;;;;;;10544615;28;20697;-82
2021/09/06 17:30:31;;;;;;;8.13;7.50;;;21.70;99.10;;;;;;10542696;28;20200;-82
2021/09/06 17:35:33;;;;;;;9.30;8.50;;;21.60;99.40;;;;;;10558696;28;20223;-82
2021/09/06 17:40:35;;;;;;;9.07;8.27;;;21.50;99.70;;;;;;10542542;28;20216;-82
2021/09/06 17:45:39;;;;;;;9.80;8.00;;;21.40;99.20;;;;;;10540998;28;20234;-82
2021/09/06 17:50:41;;;;;;;9.20;7.83;;;21.30;99.50;;;;;;10526634;28;20315;-82
2021/09/06 17:55:43;;;;;;;8.40;7.77;;;21.20;99.70;;;;;;10525957;28;20220;-81
2021/09/06 18:00:48;;;;;;;8.97;8.17;;;21.00;99.80;;;;;;10543153;28;20223;-81
2021/09/06 18:05:54;;;;;;;12.30;11.00;;;21.00;99.80;;;;;;10543399;28;20273;-82
2021/09/06 18:11:00;;;;;;;11.97;10.70;;;20.90;99.60;;;;;;10542315;28;20683;-82
2021/09/06 18:16:23;;;;;;;8.67;7.87;;;20.80;99.40;;;;;;10550964;22;20706;-83
2021/09/06 18:22:09;;;;;;;9.07;8.20;;;20.70;99.30;;;;;;10502223;28;20686;-82
2021/09/06 18:27:11;;;;;;;9.73;8.90;;;20.60;99.90;;;;;;10483185;28;20240;-82
2021/09/06 18:32:15;;;;;;;10.00;9.20;;;20.60;99.90;;;;;;10501636;28;20197;-82
2021/09/06 18:37:17;;;;;;;10.53;9.63;;;20.60;99.90;;;;;;10505196;28;20217;-82
2021/09/06 18:42:20;;;;;;;10.43;9.37;;;20.50;99.90;;;;;;10515529;28;20232;-81
2021/09/06 18:47:24;;;;;;;10.80;9.80;;;20.50;99.90;;;;;;10498430;28;20351;-81
2021/09/06 18:52:26;;;;;;;9.20;8.37;;;20.40;99.90;;;;;;10498858;28;20191;-81
2021/09/06 18:57:30;;;;;;;11.17;9.00;;;20.30;99.90;;;;;;10514704;28;20231;-81
2021/09/06 19:02:33;;;;;;;9.43;8.63;;;20.30;99.90;;;;;;10501095;28;20224;-81
2021/09/06 19:07:35;;;;;;;7.80;7.20;;;20.30;99.90;;;;;;10501171;28;20223;-82
2021/09/06 19:12:40;;;;;;;9.57;8.57;;;20.20;99.90;;;;;;10499747;28;20208;-81
2021/09/06 19:17:43;;;;;;;9.80;8.93;;;20.10;99.90;;;;;;10500360;28;20228;-82
2021/09/06 19:22:49;;;;;;;9.37;8.57;;;20.10;99.90;;;;;;10497315;28;20220;-81
2021/09/06 19:27:52;;;;;;;8.50;7.80;;;20.10;99.90;;;;;;10476365;28;20271;-81
2021/09/06 19:32:55;;;;;;;9.07;8.27;;;20.00;99.90;;;;;;10499365;28;20189;-80
2021/09/06 19:38:00;;;;;;;9.37;8.47;;;20.00;99.90;;;;;;10500575;28;20217;-81
2021/09/06 19:43:02;;;;;;;9.00;8.10;;;20.00;99.90;;;;;;10496151;28;20220;-81
2021/09/06 19:48:06;;;;;;;9.90;9.00;;;20.00;99.90;;;;;;10502018;28;20231;-81
2021/09/06 19:53:08;;;;;;;9.87;8.90;;;20.00;99.90;;;;;;10501677;28;20221;-81
2021/09/06 19:58:10;;;;;;;9.57;8.67;;;19.90;99.90;;;;;;10498118;28;20239;-82
2021/09/06 20:03:17;;;;;;;10.10;9.20;;;19.80;99.90;;;;;;10507063;28;20717;-82
2021/09/06 20:08:19;;;;;;;9.40;8.60;;;19.80;99.90;;;;;;10509404;28;20216;-82
2021/09/06 20:13:21;;;;;;;10.37;9.47;;;19.80;99.90;;;;;;10504198;28;20211;-82
2021/09/06 20:18:25;;;;;;;10.00;9.10;;;19.70;99.90;;;;;;10490337;28;20266;-82
2021/09/06 20:23:27;;;;;;;10.27;9.37;;;19.70;99.90;;;;;;10508689;28;20227;-82
2021/09/06 20:28:29;;;;;;;9.80;7.90;;;19.60;99.90;;;;;;10507309;28;20667;-82
2021/09/06 20:33:33;;;;;;;10.50;9.60;;;19.60;99.90;;;;;;10519956;28;20204;-82
2021/09/06 20:38:35;;;;;;;10.50;9.50;;;19.60;99.90;;;;;;10484971;28;20220;-82
2021/09/06 20:43:37;;;;;;;11.33;10.20;;;19.50;99.90;;;;;;10502176;28;20226;-82
2021/09/06 20:48:41;;;;;;;8.87;8.17;;;19.50;99.90;;;;;;10503698;28;20270;-81
2021/09/06 20:53:43;;;;;;;9.50;8.43;;;19.50;99.90;;;;;;10501807;28;20264;-82
2021/09/06 20:58:45;;;;;;;9.53;8.63;;;19.40;99.90;;;;;;10501299;28;20316;-82
2021/09/06 21:03:48;;;;;;;11.07;9.53;;;19.30;99.90;;;;;;10502239;28;20704;-82
2021/09/06 21:08:50;;;;;;;9.73;8.83;;;19.30;99.90;;;;;;10502316;28;20230;-82
2021/09/06 21:13:53;;;;;;;11.10;9.70;;;19.20;99.90;;;;;;10503304;28;20566;-82
2021/09/06 21:18:56;;;;;;;10.00;9.10;;;19.20;99.90;;;;;;10506177;28;20506;-82
2021/09/06 21:23:58;;;;;;;9.87;8.93;;;19.10;99.90;;;;;;10499421;28;20311;-80
2021/09/06 21:29:01;;;;;;;10.40;9.40;;;19.10;99.90;;;;;;10483186;28;20224;-81
2021/09/06 21:34:07;;;;;;;9.17;8.37;;;19.10;99.90;;;;;;10480961;28;20312;-82
2021/09/06 21:39:09;;;;;;;11.53;9.60;;;19.00;99.90;;;;;;10499688;28;20205;-82
2021/09/06 21:44:11;;;;;;;10.30;9.30;;;18.90;99.90;;;;;;10502886;28;20221;-82
2021/09/06 21:49:15;;;;;;;9.60;8.80;;;18.90;99.90;;;;;;10502072;28;20216;-82
2021/09/06 21:54:17;;;;;;;10.00;9.10;;;18.80;99.90;;;;;;10501589;28;20192;-81
2021/09/06 21:59:19;;;;;;;9.93;9.03;;;18.80;99.90;;;;;;10503989;28;20239;-81
2021/09/06 22:04:22;;;;;;;9.53;8.70;;;18.80;99.90;;;;;;10485340;28;20278;-82
2021/09/06 22:09:24;;;;;;;10.50;9.50;;;18.70;99.90;;;;;;10502251;28;20213;-82
2021/09/06 22:14:27;;;;;;;11.00;9.90;;;18.70;99.90;;;;;;10500689;28;20251;-82
2021/09/06 22:19:30;;;;;;;9.43;8.53;;;18.60;99.90;;;;;;10502625;28;20232;-82
2021/09/06 22:24:32;;;;;;;9.80;8.97;;;18.60;99.90;;;;;;10508714;28;20224;-81
2021/09/06 22:29:35;;;;;;;10.03;9.23;;;18.60;99.90;;;;;;10504566;28;20220;-82
2021/09/06 22:34:38;;;;;;;10.53;9.53;;;18.50;99.90;;;;;;10501997;28;20250;-82
2021/09/06 22:39:40;;;;;;;15.03;9.73;;;18.50;99.90;;;;;;10475131;28;20646;-81
2021/09/06 22:44:42;;;;;;;10.67;9.80;;;18.40;99.90;;;;;;10469923;28;20217;-82
2021/09/06 22:49:46;;;;;;;10.80;9.90;;;18.40;99.90;;;;;;10497705;28;20296;-81
2021/09/06 22:54:48;;;;;;;11.33;10.33;;;18.40;99.90;;;;;;10494194;28;20197;-82
2021/09/06 22:59:50;;;;;;;10.50;9.60;;;18.30;99.90;;;;;;10499600;28;20204;-81
2021/09/06 23:04:54;;;;;;;11.00;10.07;;;18.30;99.90;;;;;;10512173;28;20281;-82
2021/09/06 23:09:57;;;;;;;10.63;9.63;;;18.30;99.90;;;;;;10499572;28;20235;-82
2021/09/06 23:14:59;;;;;;;11.83;10.63;;;18.20;99.90;;;;;;10510336;28;20239;-81
2021/09/06 23:20:06;;;;;;;11.07;10.17;;;18.20;99.90;;;;;;10499816;28;20641;-81
2021/09/06 23:25:09;;;;;;;10.77;9.80;;;18.20;99.90;;;;;;10501625;28;20220;-82
2021/09/06 23:30:12;;;;;;;11.07;9.60;;;18.10;99.90;;;;;;10502139;28;20197;-81
2021/09/06 23:35:16;;;;;;;11.10;10.00;;;18.10;99.90;;;;;;10502668;28;20212;-82
2021/09/06 23:40:18;;;;;;;9.83;8.83;;;18.10;99.90;;;;;;10504903;28;20266;-81
2021/09/06 23:45:20;;;;;;;11.20;10.20;;;18.00;99.90;;;;;;10506196;28;20217;-81
2021/09/06 23:50:25;;;;;;;11.40;10.50;;;18.00;99.90;;;;;;10486458;28;20208;-82
2021/09/06 23:55:27;;;;;;;11.10;9.97;;;17.90;99.90;;;;;;10506309;28;20208;-82
